createdAt,value
2019-05-17T00:01:07.652Z,14.77
2019-05-17T00:03:37.808Z,13.63
2019-05-17T00:06:07.953Z,14.00
2019-05-17T00:08:38.521Z,13.33
2019-05-17T00:11:08.943Z,14.07
2019-05-17T00:13:40.175Z,13.23
2019-05-17T00:16:11.822Z,13.80
2019-05-17T00:18:41.857Z,14.23
2019-05-17T00:21:12.268Z,15.30
2019-05-17T00:23:42.347Z,14.63
2019-05-17T00:26:12.338Z,14.47
2019-05-17T00:28:42.358Z,13.70
2019-05-17T00:31:12.967Z,14.80
2019-05-17T00:33:43.359Z,14.63
2019-05-17T00:36:13.388Z,14.63
2019-05-17T00:38:50.699Z,15.13
2019-05-17T00:41:18.124Z,15.40
2019-05-17T00:43:48.199Z,16.07
2019-05-17T00:46:18.485Z,15.60
2019-05-17T00:48:48.609Z,15.60
2019-05-17T00:51:19.016Z,15.73
2019-05-17T00:53:49.318Z,15.00
2019-05-17T00:56:19.439Z,15.43
2019-05-17T00:58:49.915Z,15.50
2019-05-17T01:01:20.348Z,15.33
2019-05-17T01:03:50.356Z,15.37
2019-05-17T01:06:20.721Z,16.03
2019-05-17T01:09:00.913Z,15.43
2019-05-17T01:11:22.839Z,15.93
2019-05-17T01:13:55.481Z,16.20
2019-05-17T01:16:27.105Z,15.17
2019-05-17T01:18:57.319Z,17.23
2019-05-17T01:21:27.731Z,17.13
2019-05-17T01:23:57.955Z,16.27
2019-05-17T01:26:27.999Z,16.83
2019-05-17T01:28:58.150Z,15.33
2019-05-17T01:31:28.186Z,15.83
2019-05-17T01:33:58.301Z,15.00
2019-05-17T01:36:28.677Z,15.83
2019-05-17T01:39:00.214Z,15.53
2019-05-17T01:41:30.198Z,15.50
2019-05-17T01:44:00.480Z,15.70
2019-05-17T01:46:30.974Z,16.00
2019-05-17T01:49:02.487Z,17.77
2019-05-17T01:51:32.898Z,17.10
2019-05-17T01:54:03.317Z,18.53
2019-05-17T01:56:33.332Z,18.07
2019-05-17T01:59:06.618Z,17.83
2019-05-17T02:01:37.162Z,18.63
2019-05-17T02:04:07.422Z,17.83
2019-05-17T02:06:37.465Z,19.07
2019-05-17T02:09:07.722Z,19.40
2019-05-17T02:11:37.948Z,18.73
2019-05-17T02:14:08.370Z,18.40
2019-05-17T02:16:40.306Z,19.03
2019-05-17T02:19:10.431Z,18.67
2019-05-17T02:21:40.540Z,17.43
2019-05-17T02:24:10.555Z,17.47
2019-05-17T02:26:40.576Z,18.10
2019-05-17T02:29:12.039Z,18.20
2019-05-17T02:31:43.705Z,17.67
2019-05-17T02:34:15.307Z,17.73
2019-05-17T02:36:47.406Z,16.57
2019-05-17T02:39:17.921Z,17.50
2019-05-17T02:41:47.995Z,19.10
2019-05-17T02:44:18.007Z,18.23
2019-05-17T02:46:47.990Z,17.70
2019-05-17T02:49:18.323Z,19.00
2019-05-17T02:51:48.374Z,19.43
2019-05-17T02:54:18.661Z,18.47
2019-05-17T02:56:48.954Z,19.00
2019-05-17T02:59:18.989Z,18.60
2019-05-17T03:01:52.480Z,19.37
2019-05-17T03:04:23.612Z,18.07
2019-05-17T03:06:53.445Z,18.63
2019-05-17T03:09:24.056Z,18.30
2019-05-17T03:11:57.010Z,17.83
2019-05-17T03:14:27.426Z,19.10
2019-05-17T03:16:57.446Z,19.37
2019-05-17T03:19:27.426Z,20.57
2019-05-17T03:21:57.699Z,19.67
2019-05-17T03:24:27.755Z,20.90
2019-05-17T03:26:58.134Z,20.03
2019-05-17T03:29:28.154Z,22.27
2019-05-17T03:32:00.546Z,27.07
2019-05-17T03:34:36.412Z,22.57
2019-05-17T03:37:06.058Z,21.47
2019-05-17T03:39:34.310Z,22.17
2019-05-17T03:42:04.645Z,21.77
2019-05-17T03:44:34.791Z,21.90
2019-05-17T03:47:04.870Z,22.47
2019-05-17T03:49:39.356Z,21.90
2019-05-17T03:52:07.913Z,22.27
2019-05-17T03:54:37.967Z,21.23
2019-05-17T03:57:08.327Z,20.77
2019-05-17T03:59:38.336Z,20.93
2019-05-17T04:02:08.434Z,19.23
2019-05-17T04:04:38.858Z,18.87
2019-05-17T04:07:12.539Z,19.57
2019-05-17T04:09:43.797Z,19.47
2019-05-17T04:12:13.887Z,20.43
2019-05-17T04:14:45.417Z,19.13
2019-05-17T04:17:15.924Z,18.80
2019-05-17T04:19:45.967Z,20.30
2019-05-17T04:22:16.255Z,19.53
2019-05-17T04:24:46.356Z,19.50
2019-05-17T04:27:16.762Z,20.03
2019-05-17T04:29:46.831Z,21.00
2019-05-17T04:32:16.959Z,20.73
2019-05-17T04:34:47.206Z,20.73
2019-05-17T04:37:17.363Z,21.07
2019-05-17T04:39:47.976Z,20.50
2019-05-17T04:42:18.398Z,20.97
2019-05-17T04:44:48.461Z,20.87
2019-05-17T04:47:22.954Z,20.13
2019-05-17T04:49:53.691Z,20.70
2019-05-17T04:52:24.208Z,20.03
2019-05-17T04:54:54.859Z,21.17
2019-05-17T04:57:24.863Z,21.10
2019-05-17T04:59:54.985Z,21.83
2019-05-17T05:02:25.145Z,21.73
2019-05-17T05:04:55.621Z,22.73
2019-05-17T05:07:25.782Z,23.20
2019-05-17T05:09:56.005Z,20.77
2019-05-17T05:12:26.073Z,21.37
2019-05-17T05:14:56.306Z,22.13
2019-05-17T05:17:26.722Z,21.40
2019-05-17T05:19:57.146Z,21.67
2019-05-17T05:22:27.697Z,22.17
2019-05-17T05:24:57.902Z,22.47
2019-05-17T05:27:28.590Z,22.80
2019-05-17T05:29:59.386Z,23.13
2019-05-17T05:32:31.534Z,22.20
2019-05-17T05:35:03.140Z,21.67
2019-05-17T05:37:33.871Z,21.40
2019-05-17T05:40:05.295Z,23.10
2019-05-17T05:42:35.715Z,22.70
2019-05-17T05:45:07.752Z,23.30
2019-05-17T05:47:38.367Z,23.27
2019-05-17T05:50:08.533Z,23.87
2019-05-17T05:52:38.912Z,23.77
2019-05-17T05:55:09.338Z,23.10
2019-05-17T05:57:42.067Z,23.67
2019-05-17T06:00:13.024Z,23.47
2019-05-17T06:02:44.365Z,23.13
2019-05-17T06:05:17.224Z,23.63
2019-05-17T06:07:47.217Z,22.80
2019-05-17T06:10:18.447Z,23.27
2019-05-17T06:12:51.718Z,22.87
2019-05-17T06:15:21.989Z,23.30
2019-05-17T06:17:52.547Z,23.10
2019-05-17T06:20:22.885Z,22.80
2019-05-17T06:22:55.262Z,22.63
2019-05-17T06:25:25.341Z,22.80
2019-05-17T06:27:55.804Z,22.63
2019-05-17T06:30:26.071Z,23.77
2019-05-17T06:32:56.258Z,24.10
2019-05-17T06:35:27.034Z,21.73
2019-05-17T06:37:57.210Z,22.90
2019-05-17T06:40:27.658Z,22.57
2019-05-17T06:42:58.380Z,21.27
2019-05-17T06:45:28.393Z,22.17
2019-05-17T06:47:58.727Z,21.03
2019-05-17T06:50:29.155Z,21.50
2019-05-17T06:52:59.310Z,20.60
2019-05-17T06:55:31.495Z,22.60
2019-05-17T06:58:02.710Z,20.83
2019-05-17T07:00:34.730Z,22.20
2019-05-17T07:03:05.205Z,21.07
2019-05-17T07:05:37.025Z,21.50
2019-05-17T07:08:07.379Z,21.27
2019-05-17T07:10:39.647Z,21.93
2019-05-17T07:13:10.703Z,21.40
2019-05-17T07:15:47.196Z,21.93
2019-05-17T07:18:13.266Z,22.10
2019-05-17T07:20:45.035Z,22.37
2019-05-17T07:23:19.630Z,23.67
2019-05-17T07:25:50.172Z,22.63
2019-05-17T07:28:20.110Z,23.03
2019-05-17T07:30:51.444Z,26.60
2019-05-17T07:33:22.236Z,22.30
2019-05-17T07:35:54.191Z,22.97
2019-05-17T07:38:24.410Z,22.10
2019-05-17T07:40:56.284Z,23.10
2019-05-17T07:43:26.522Z,22.23
2019-05-17T07:45:56.881Z,21.60
2019-05-17T07:48:27.403Z,21.40
2019-05-17T07:50:59.386Z,21.90
2019-05-17T07:53:30.723Z,22.17
2019-05-17T07:56:01.359Z,21.67
2019-05-17T07:58:32.269Z,21.67
2019-05-17T08:01:02.597Z,21.40
2019-05-17T08:03:32.829Z,22.87
2019-05-17T08:06:04.004Z,22.10
2019-05-17T08:08:34.127Z,22.33
2019-05-17T08:11:04.514Z,22.33
2019-05-17T08:13:34.768Z,22.23
2019-05-17T08:16:06.600Z,21.97
2019-05-17T08:18:37.022Z,22.60
2019-05-17T08:21:07.226Z,21.93
2019-05-17T08:23:39.833Z,22.33
2019-05-17T08:26:10.723Z,21.17
2019-05-17T08:28:41.623Z,22.13
2019-05-17T08:31:11.813Z,22.23
2019-05-17T08:33:42.318Z,21.33
2019-05-17T08:36:12.785Z,21.73
2019-05-17T08:38:42.827Z,20.73
2019-05-17T08:41:13.233Z,21.00
2019-05-17T08:43:47.026Z,20.20
2019-05-17T08:46:15.426Z,20.40
2019-05-17T08:48:46.140Z,18.87
2019-05-17T08:51:16.262Z,18.77
2019-05-17T08:53:46.446Z,18.97
2019-05-17T08:56:16.793Z,20.30
2019-05-17T08:58:49.688Z,17.87
2019-05-17T09:01:19.647Z,18.57
2019-05-17T09:03:50.658Z,17.60
2019-05-17T09:06:20.951Z,15.03
2019-05-17T09:08:51.553Z,15.10
2019-05-17T09:11:23.523Z,15.40
2019-05-17T09:13:58.235Z,14.77
2019-05-17T09:16:25.706Z,14.83
2019-05-17T09:18:56.341Z,17.17
2019-05-17T09:21:26.896Z,17.30
2019-05-17T09:23:59.570Z,17.07
2019-05-17T09:26:29.474Z,16.87
2019-05-17T09:29:01.224Z,15.10
2019-05-17T09:31:31.756Z,13.30
2019-05-17T09:34:03.602Z,14.10
2019-05-17T09:36:33.716Z,12.37
2019-05-17T09:39:09.335Z,13.90
2019-05-17T09:41:40.142Z,13.70
2019-05-17T09:44:16.512Z,12.60
2019-05-17T09:46:50.242Z,13.53
2019-05-17T09:49:20.638Z,13.77
2019-05-17T09:51:51.134Z,14.03
2019-05-17T09:54:37.233Z,15.80
2019-05-17T09:56:54.070Z,15.25
2019-05-17T09:59:24.509Z,14.73
2019-05-17T10:01:55.564Z,14.68
2019-05-17T10:04:26.179Z,15.48
2019-05-17T10:06:56.211Z,14.00
2019-05-17T10:09:28.118Z,14.28
2019-05-17T10:12:00.024Z,14.15
2019-05-17T10:14:31.351Z,13.93
2019-05-17T10:17:03.618Z,14.33
2019-05-17T10:19:33.855Z,14.35
2019-05-17T10:22:04.695Z,14.10
2019-05-17T10:24:38.948Z,14.97
2019-05-17T10:27:06.662Z,14.50
2019-05-17T10:29:39.530Z,14.70
2019-05-17T10:32:10.467Z,14.25
2019-05-17T10:34:41.387Z,13.50
2019-05-17T10:37:11.453Z,15.95
2019-05-17T10:39:42.156Z,17.48
2019-05-17T10:42:14.240Z,17.05
2019-05-17T10:44:47.847Z,15.72
2019-05-17T10:47:16.447Z,16.05
2019-05-17T10:49:46.750Z,16.60
2019-05-17T10:52:16.862Z,17.17
2019-05-17T10:54:47.413Z,16.65
2019-05-17T10:57:19.479Z,17.35
2019-05-17T10:59:49.981Z,15.48
2019-05-17T11:02:20.110Z,15.65
2019-05-17T11:04:50.759Z,16.12
2019-05-17T11:07:22.996Z,14.05
2019-05-17T11:09:53.034Z,14.83
2019-05-17T11:12:23.463Z,15.40
2019-05-17T11:15:09.845Z,14.38
2019-05-17T11:17:27.160Z,15.00
2019-05-17T11:19:57.296Z,16.93
2019-05-17T11:22:27.355Z,15.65
2019-05-17T11:24:57.994Z,15.00
2019-05-17T11:27:28.199Z,14.98
2019-05-17T11:29:59.824Z,14.60
2019-05-17T11:32:29.995Z,15.28
2019-05-17T11:35:00.524Z,11.33
2019-05-17T11:37:30.618Z,12.68
2019-05-17T11:40:00.883Z,12.70
2019-05-17T11:42:31.593Z,11.88
2019-05-17T11:45:01.726Z,12.47
2019-05-17T11:47:31.963Z,11.12
2019-05-17T11:50:02.704Z,9.78
2019-05-17T11:52:45.134Z,10.25
2019-05-17T11:55:20.040Z,10.35
2019-05-17T11:57:50.154Z,11.18
2019-05-17T12:00:21.790Z,9.78
2019-05-17T12:02:51.920Z,9.33
2019-05-17T12:05:22.306Z,10.08
2019-05-17T12:07:52.658Z,10.98
2019-05-17T12:10:22.808Z,11.33
2019-05-17T12:12:53.265Z,10.70
2019-05-17T12:15:23.412Z,11.93
2019-05-17T12:17:53.633Z,12.37
2019-05-17T12:20:24.177Z,11.18
2019-05-17T12:22:54.246Z,12.10
2019-05-17T12:25:24.618Z,12.47
2019-05-17T12:27:54.842Z,11.80
2019-05-17T12:30:26.040Z,11.75
2019-05-17T12:32:56.223Z,10.88
2019-05-17T12:35:28.026Z,13.22
2019-05-17T12:37:58.388Z,12.30
2019-05-17T12:40:28.886Z,13.00
2019-05-17T12:42:59.219Z,11.73
2019-05-17T12:45:29.982Z,10.58
2019-05-17T12:48:00.095Z,10.60
2019-05-17T12:50:30.306Z,9.35
2019-05-17T12:53:00.662Z,8.68
2019-05-17T12:55:31.271Z,9.03
2019-05-17T12:58:01.872Z,10.23
2019-05-17T13:00:31.978Z,10.30
2019-05-17T13:03:02.509Z,7.60
2019-05-17T13:05:32.973Z,8.93
2019-05-17T13:08:03.098Z,9.65
2019-05-17T13:10:33.731Z,8.85
2019-05-17T13:13:04.661Z,8.00
2019-05-17T13:15:35.226Z,7.00
2019-05-17T13:18:05.317Z,7.47
2019-05-17T13:20:35.528Z,7.00
2019-05-17T13:23:06.458Z,6.58
2019-05-17T13:25:36.630Z,7.03
2019-05-17T13:28:07.386Z,8.48
2019-05-17T13:30:37.612Z,8.00
2019-05-17T13:33:07.767Z,6.62
2019-05-17T13:35:38.444Z,7.03
2019-05-17T13:38:08.606Z,6.75
2019-05-17T13:40:40.173Z,6.97
2019-05-17T13:43:13.146Z,6.97
2019-05-17T13:45:44.319Z,6.00
2019-05-17T13:48:17.991Z,9.43
2019-05-17T13:50:52.145Z,7.42
2019-05-17T13:53:22.727Z,7.35
2019-05-17T13:55:53.695Z,7.30
2019-05-17T13:58:24.108Z,7.40
2019-05-17T14:00:56.779Z,7.62
2019-05-17T14:03:27.556Z,6.80
2019-05-17T14:05:58.021Z,6.83
2019-05-17T14:08:28.208Z,6.25
2019-05-17T14:10:59.432Z,6.30
2019-05-17T14:13:30.003Z,6.12
2019-05-17T14:16:00.401Z,7.37
2019-05-17T14:18:30.636Z,8.33
2019-05-17T14:21:02.607Z,6.97
2019-05-17T14:23:33.008Z,8.45
2019-05-17T14:26:05.590Z,7.75
2019-05-17T14:28:35.688Z,6.42
2019-05-17T14:31:06.813Z,7.00
2019-05-17T14:33:37.328Z,6.45
2019-05-17T14:36:10.225Z,7.45
2019-05-17T14:38:40.376Z,7.05
2019-05-17T14:41:10.737Z,7.42
2019-05-17T14:43:41.023Z,7.97
2019-05-17T14:46:11.656Z,8.30
2019-05-17T14:48:43.768Z,7.40
2019-05-17T14:51:14.066Z,7.67
2019-05-17T14:53:45.277Z,7.33
2019-05-17T14:56:17.942Z,7.30
2019-05-17T14:58:49.658Z,6.58
2019-05-17T15:01:20.023Z,7.00
2019-05-17T15:03:51.508Z,7.58
2019-05-17T15:06:21.886Z,8.30
2019-05-17T15:08:52.371Z,8.05
2019-05-17T15:11:22.664Z,8.30
2019-05-17T15:13:52.931Z,8.90
2019-05-17T15:16:23.334Z,9.03
2019-05-17T15:18:55.177Z,7.28
2019-05-17T15:21:25.539Z,7.45
2019-05-17T15:23:56.575Z,6.92
2019-05-17T15:26:26.847Z,6.70
2019-05-17T15:28:58.304Z,6.60
2019-05-17T15:31:28.584Z,6.60
2019-05-17T15:33:59.454Z,6.40
2019-05-17T15:36:29.650Z,7.17
2019-05-17T15:39:01.269Z,6.80
2019-05-17T15:41:34.097Z,6.55
2019-05-17T15:44:04.681Z,6.28
2019-05-17T15:46:35.052Z,6.20
2019-05-17T15:49:06.989Z,6.03
2019-05-17T15:51:37.139Z,6.97
2019-05-17T15:54:07.564Z,6.33
2019-05-17T15:56:39.687Z,6.10
2019-05-17T15:59:09.854Z,6.70
2019-05-17T16:01:40.592Z,7.22
2019-05-17T16:04:12.055Z,7.28
2019-05-17T16:06:42.580Z,5.95
2019-05-17T16:09:12.735Z,6.90
2019-05-17T16:11:42.352Z,7.53
2019-05-17T16:14:12.563Z,6.12
2019-05-17T16:16:45.081Z,5.92
2019-05-17T16:19:15.474Z,5.45
2019-05-17T16:21:45.892Z,5.83
2019-05-17T16:24:16.205Z,5.65
2019-05-17T16:26:59.061Z,5.55
2019-05-17T16:29:29.201Z,6.25
2019-05-17T16:31:59.764Z,5.97
2019-05-17T16:34:29.911Z,6.42
2019-05-17T16:37:00.392Z,5.72
2019-05-17T16:39:31.784Z,4.90
2019-05-17T16:42:02.144Z,5.17
2019-05-17T16:44:32.804Z,4.80
2019-05-17T16:47:05.864Z,5.90
2019-05-17T16:49:36.041Z,3.95
2019-05-17T16:52:08.422Z,2.95
2019-05-17T16:54:39.483Z,2.87
2019-05-17T16:57:10.804Z,2.72
2019-05-17T16:59:43.668Z,2.92
2019-05-17T17:02:14.319Z,2.58
2019-05-17T17:04:45.434Z,3.02
2019-05-17T17:07:16.142Z,2.75
2019-05-17T17:09:47.181Z,2.90
2019-05-17T17:12:17.586Z,4.40
2019-05-17T17:14:50.499Z,3.40
2019-05-17T17:17:21.253Z,4.20
2019-05-17T17:19:51.914Z,4.37
2019-05-17T17:22:24.992Z,4.00
2019-05-17T17:24:55.619Z,4.58
2019-05-17T17:27:28.772Z,6.75
2019-05-17T17:29:59.644Z,5.90
2019-05-17T17:32:29.486Z,5.90
2019-05-17T17:35:00.895Z,6.03
2019-05-17T17:37:31.427Z,6.57
2019-05-17T17:40:04.015Z,6.00
2019-05-17T17:42:35.375Z,5.70
2019-05-17T17:45:08.054Z,4.70
2019-05-17T17:47:38.778Z,4.43
2019-05-17T17:50:09.101Z,3.93
2019-05-17T17:52:39.740Z,3.83
2019-05-17T17:55:10.837Z,4.27
2019-05-17T17:57:41.706Z,4.20
2019-05-17T18:00:12.581Z,4.63
2019-05-17T18:02:43.154Z,4.50
2019-05-17T18:05:15.480Z,5.53
2019-05-17T18:07:46.138Z,6.00
2019-05-17T18:10:31.978Z,5.80
2019-05-17T18:13:02.092Z,5.40
2019-05-17T18:15:37.847Z,4.97
2019-05-17T18:18:08.892Z,5.70
2019-05-17T18:20:40.062Z,4.97
2019-05-17T18:23:12.183Z,4.50
2019-05-17T18:25:44.690Z,4.63
2019-05-17T18:28:14.879Z,4.40
2019-05-17T18:30:45.022Z,4.00
2019-05-17T18:33:17.041Z,4.53
2019-05-17T18:35:47.360Z,4.00
2019-05-17T18:38:22.479Z,3.83
2019-05-17T18:40:52.818Z,3.90
2019-05-17T18:43:23.086Z,3.40
2019-05-17T18:45:53.171Z,3.80
2019-05-17T18:48:23.739Z,3.77
2019-05-17T18:50:55.244Z,3.77
2019-05-17T18:53:25.951Z,3.40
2019-05-17T18:55:56.178Z,3.37
2019-05-17T18:58:26.480Z,3.60
2019-05-17T19:00:56.670Z,3.50
2019-05-17T19:03:27.536Z,3.50
2019-05-17T19:05:57.642Z,3.83
2019-05-17T19:08:28.195Z,3.87
2019-05-17T19:10:58.330Z,3.30
2019-05-17T19:13:28.619Z,3.17
2019-05-17T19:15:59.200Z,3.30
2019-05-17T19:18:31.411Z,2.77
2019-05-17T19:21:01.568Z,2.80
2019-05-17T19:23:31.825Z,2.70
2019-05-17T19:26:02.487Z,2.80
2019-05-17T19:28:33.918Z,3.13
2019-05-17T19:31:04.436Z,3.10
2019-05-17T19:33:34.619Z,3.30
2019-05-17T19:36:05.492Z,3.07
2019-05-17T19:38:35.811Z,3.07
2019-05-17T19:41:06.614Z,3.27
2019-05-17T19:43:37.399Z,2.77
2019-05-17T19:46:07.598Z,3.30
2019-05-17T19:48:37.857Z,3.47
2019-05-17T19:51:07.950Z,2.80
2019-05-17T19:53:38.195Z,3.27
2019-05-17T19:56:08.383Z,4.10
2019-05-17T19:58:38.916Z,3.13
2019-05-17T20:01:09.023Z,3.20
2019-05-17T20:03:39.127Z,3.33
2019-05-17T20:06:09.572Z,3.27
2019-05-17T20:08:40.059Z,3.60
2019-05-17T20:11:10.681Z,3.60
2019-05-17T20:13:41.034Z,3.50
2019-05-17T20:16:11.171Z,4.30
2019-05-17T20:18:41.402Z,4.03
2019-05-17T20:21:13.254Z,4.20
2019-05-17T20:23:44.973Z,3.40
2019-05-17T20:26:15.150Z,5.20
2019-05-17T20:28:45.278Z,3.93
2019-05-17T20:31:15.369Z,3.63
2019-05-17T20:33:45.467Z,3.27
2019-05-17T20:36:15.584Z,3.50
2019-05-17T20:38:46.201Z,4.00
2019-05-17T20:41:16.363Z,3.80
2019-05-17T20:43:46.687Z,3.77
2019-05-17T20:46:17.076Z,3.70
2019-05-17T20:48:47.322Z,4.30
2019-05-17T20:51:17.524Z,5.70
2019-05-17T20:53:47.866Z,5.83
2019-05-17T20:56:32.001Z,4.97
2019-05-17T20:58:49.931Z,7.70
2019-05-17T21:01:20.172Z,4.80
2019-05-17T21:03:50.902Z,4.43
2019-05-17T21:06:21.168Z,4.40
2019-05-17T21:08:51.968Z,4.70
2019-05-17T21:11:22.250Z,4.80
2019-05-17T21:13:53.510Z,4.40
2019-05-17T21:16:23.532Z,4.17
2019-05-17T21:18:53.603Z,3.77
2019-05-17T21:21:23.719Z,4.27
2019-05-17T21:23:55.442Z,4.20
2019-05-17T21:26:25.633Z,3.83
2019-05-17T21:28:55.715Z,3.80
2019-05-17T21:31:26.001Z,4.07
2019-05-17T21:33:56.380Z,4.23
2019-05-17T21:36:26.496Z,4.27
2019-05-17T21:38:56.559Z,4.23
2019-05-17T21:41:26.697Z,4.50
2019-05-17T21:43:57.191Z,3.60
2019-05-17T21:46:27.342Z,4.00
2019-05-17T21:48:57.470Z,4.43
2019-05-17T21:51:27.622Z,3.70
2019-05-17T21:53:58.134Z,3.90
2019-05-17T21:56:28.279Z,3.90
2019-05-17T21:58:58.803Z,3.77
2019-05-17T22:01:30.460Z,4.00
2019-05-17T22:04:02.168Z,4.47
2019-05-17T22:06:32.233Z,3.90
2019-05-17T22:09:03.113Z,4.00
2019-05-17T22:11:33.314Z,4.30
2019-05-17T22:14:03.383Z,3.87
2019-05-17T22:16:33.490Z,3.93
2019-05-17T22:19:04.788Z,3.93
2019-05-17T22:21:34.853Z,4.17
2019-05-17T22:24:06.560Z,3.77
2019-05-17T22:26:36.963Z,4.07
2019-05-17T22:29:07.223Z,4.13
2019-05-17T22:31:38.998Z,4.17
2019-05-17T22:34:10.342Z,4.13
2019-05-17T22:36:40.780Z,4.30
2019-05-17T22:39:10.961Z,3.83
2019-05-17T22:41:41.127Z,3.93
2019-05-17T22:44:11.269Z,4.07
2019-05-17T22:46:42.032Z,4.00
2019-05-17T22:49:12.192Z,3.60
2019-05-17T22:51:42.380Z,3.97
2019-05-17T22:54:12.867Z,4.10
2019-05-17T22:56:42.978Z,4.30
2019-05-17T22:59:13.611Z,4.20
2019-05-17T23:01:43.832Z,3.93
2019-05-17T23:04:14.382Z,4.23
2019-05-17T23:06:44.523Z,4.60
2019-05-17T23:09:14.943Z,3.90
2019-05-17T23:11:45.316Z,4.07
2019-05-17T23:14:15.986Z,4.10
2019-05-17T23:16:51.595Z,8.30
2019-05-17T23:19:19.471Z,4.37
2019-05-17T23:21:49.558Z,4.13
2019-05-17T23:24:22.210Z,4.23
2019-05-17T23:26:52.315Z,4.50
2019-05-17T23:29:22.433Z,4.30
2019-05-17T23:31:52.606Z,4.27
2019-05-17T23:34:24.102Z,4.70
2019-05-17T23:36:54.157Z,4.63
2019-05-17T23:39:24.546Z,4.40
2019-05-17T23:41:54.780Z,4.03
2019-05-17T23:44:25.370Z,4.13
2019-05-17T23:47:06.826Z,4.00
2019-05-17T23:49:27.814Z,4.23
2019-05-17T23:51:58.428Z,4.03
2019-05-17T23:54:28.433Z,4.40
2019-05-17T23:56:58.758Z,4.37
2019-05-17T23:59:30.387Z,4.20
